sensor_id;sensor_type;location;lat;lon;timestamp;pressure;altitude;pressure_sealevel;temperature;humidity
34081;BME280;20358;50.272;19.026;2023-01-15T00:00:18;97709.84;;;4.15;49.46
34081;BME280;20358;50.272;19.026;2023-01-15T00:03:28;97683.50;;;4.18;49.39
34081;BME280;20358;50.272;19.026;2023-01-15T00:06:36;97681.72;;;4.18;49.20
34081;BME280;20358;50.272;19.026;2023-01-15T00:09:44;97676.69;;;4.15;48.98
34081;BME280;20358;50.272;19.026;2023-01-15T00:12:50;97675.59;;;4.19;49.13
34081;BME280;20358;50.272;19.026;2023-01-15T00:16:01;97659.00;;;4.20;49.56
34081;BME280;20358;50.272;19.026;2023-01-15T00:19:11;97655.59;;;4.18;49.17
34081;BME280;20358;50.272;19.026;2023-01-15T00:22:17;97656.28;;;4.22;49.49
34081;BME280;20358;50.272;19.026;2023-01-15T00:25:23;97651.72;;;4.25;49.43
34081;BME280;20358;50.272;19.026;2023-01-15T00:28:56;97651.50;;;4.28;49.34
34081;BME280;20358;50.272;19.026;2023-01-15T00:32:05;97656.38;;;4.35;49.60
34081;BME280;20358;50.272;19.026;2023-01-15T00:35:17;97650.97;;;4.38;49.29
34081;BME280;20358;50.272;19.026;2023-01-15T00:38:25;97652.44;;;4.42;49.16
34081;BME280;20358;50.272;19.026;2023-01-15T00:41:32;97647.03;;;4.45;48.72
34081;BME280;20358;50.272;19.026;2023-01-15T00:44:38;97651.91;;;4.51;49.34
34081;BME280;20358;50.272;19.026;2023-01-15T00:47:45;97646.66;;;4.51;48.73
34081;BME280;20358;50.272;19.026;2023-01-15T00:50:55;97631.59;;;4.54;48.59
34081;BME280;20358;50.272;19.026;2023-01-15T00:54:00;97644.44;;;4.59;48.92
34081;BME280;20358;50.272;19.026;2023-01-15T00:57:07;97626.84;;;4.61;48.64
34081;BME280;20358;50.272;19.026;2023-01-15T01:00:13;97606.88;;;4.60;49.05
34081;BME280;20358;50.272;19.026;2023-01-15T01:03:21;97595.28;;;4.64;48.59
34081;BME280;20358;50.272;19.026;2023-01-15T01:06:30;97591.53;;;4.68;48.72
34081;BME280;20358;50.272;19.026;2023-01-15T01:09:36;97593.03;;;4.72;48.67
34081;BME280;20358;50.272;19.026;2023-01-15T01:12:42;97564.28;;;4.72;49.12
34081;BME280;20358;50.272;19.026;2023-01-15T01:15:50;97582.59;;;4.72;48.96
34081;BME280;20358;50.272;19.026;2023-01-15T01:18:56;97570.44;;;4.71;48.96
34081;BME280;20358;50.272;19.026;2023-01-15T01:22:06;97572.13;;;4.72;48.87
34081;BME280;20358;50.272;19.026;2023-01-15T01:25:11;97567.09;;;4.69;48.51
34081;BME280;20358;50.272;19.026;2023-01-15T01:28:19;97578.47;;;4.68;48.78
34081;BME280;20358;50.272;19.026;2023-01-15T01:31:25;97565.69;;;4.63;48.92
34081;BME280;20358;50.272;19.026;2023-01-15T01:34:31;97548.41;;;4.61;49.37
34081;BME280;20358;50.272;19.026;2023-01-15T01:37:40;97526.03;;;4.57;49.43
34081;BME280;20358;50.272;19.026;2023-01-15T01:40:46;97541.06;;;4.53;48.97
34081;BME280;20358;50.272;19.026;2023-01-15T01:43:55;97548.97;;;4.52;49.74
34081;BME280;20358;50.272;19.026;2023-01-15T01:47:07;97542.09;;;4.51;49.35
34081;BME280;20358;50.272;19.026;2023-01-15T01:50:16;97537.72;;;4.51;49.61
34081;BME280;20358;50.272;19.026;2023-01-15T01:53:30;97538.94;;;4.46;49.11
34081;BME280;20358;50.272;19.026;2023-01-15T01:56:36;97515.47;;;4.44;49.29
34081;BME280;20358;50.272;19.026;2023-01-15T01:59:44;97531.38;;;4.41;49.66
34081;BME280;20358;50.272;19.026;2023-01-15T02:02:52;97527.19;;;4.39;49.46
34081;BME280;20358;50.272;19.026;2023-01-15T02:06:04;97515.03;;;4.38;49.71
34081;BME280;20358;50.272;19.026;2023-01-15T02:09:15;97520.25;;;4.38;49.82
34081;BME280;20358;50.272;19.026;2023-01-15T02:12:27;97507.94;;;4.40;49.63
34081;BME280;20358;50.272;19.026;2023-01-15T02:15:44;97505.63;;;4.35;49.63
34081;BME280;20358;50.272;19.026;2023-01-15T02:18:59;97501.59;;;4.29;49.32
34081;BME280;20358;50.272;19.026;2023-01-15T02:22:20;97504.03;;;4.33;49.60
34081;BME280;20358;50.272;19.026;2023-01-15T02:25:56;97487.41;;;4.34;49.50
34081;BME280;20358;50.272;19.026;2023-01-15T02:29:28;97500.38;;;4.35;49.27
34081;BME280;20358;50.272;19.026;2023-01-15T02:32:45;97502.03;;;4.36;49.54
34081;BME280;20358;50.272;19.026;2023-01-15T02:35:58;97487.03;;;4.40;49.88
34081;BME280;20358;50.272;19.026;2023-01-15T02:39:14;97481.78;;;4.40;49.37
34081;BME280;20358;50.272;19.026;2023-01-15T02:42:23;97464.44;;;4.39;49.75
34081;BME280;20358;50.272;19.026;2023-01-15T02:45:40;97478.44;;;4.38;49.81
34081;BME280;20358;50.272;19.026;2023-01-15T02:48:52;97480.13;;;4.39;49.83
34081;BME280;20358;50.272;19.026;2023-01-15T02:52:12;97487.75;;;4.42;49.72
34081;BME280;20358;50.272;19.026;2023-01-15T02:55:25;97491.94;;;4.44;49.98
34081;BME280;20358;50.272;19.026;2023-01-15T02:58:37;97488.53;;;4.44;49.16
34081;BME280;20358;50.272;19.026;2023-01-15T03:01:55;97472.91;;;4.42;49.68
34081;BME280;20358;50.272;19.026;2023-01-15T03:05:08;97479.53;;;4.48;49.18
34081;BME280;20358;50.272;19.026;2023-01-15T03:08:22;97475.78;;;4.52;49.94
34081;BME280;20358;50.272;19.026;2023-01-15T03:11:32;97476.44;;;4.55;49.61
34081;BME280;20358;50.272;19.026;2023-01-15T03:14:51;97468.69;;;4.54;49.03
34081;BME280;20358;50.272;19.026;2023-01-15T03:18:10;97472.97;;;4.55;49.14
34081;BME280;20358;50.272;19.026;2023-01-15T03:21:22;97471.13;;;4.57;48.74
34081;BME280;20358;50.272;19.026;2023-01-15T03:24:40;97473.72;;;4.57;49.50
34081;BME280;20358;50.272;19.026;2023-01-15T03:27:57;97462.66;;;4.66;49.29
34081;BME280;20358;50.272;19.026;2023-01-15T03:31:05;97448.44;;;4.70;49.16
34081;BME280;20358;50.272;19.026;2023-01-15T03:34:14;97442.81;;;4.76;49.31
34081;BME280;20358;50.272;19.026;2023-01-15T03:37:24;97440.75;;;4.81;49.23
34081;BME280;20358;50.272;19.026;2023-01-15T03:40:37;97431.31;;;4.78;49.21
34081;BME280;20358;50.272;19.026;2023-01-15T03:44:03;97425.03;;;4.81;49.13
34081;BME280;20358;50.272;19.026;2023-01-15T03:47:28;97425.56;;;4.86;49.33
34081;BME280;20358;50.272;19.026;2023-01-15T03:50:53;97421.31;;;4.85;49.51
34081;BME280;20358;50.272;19.026;2023-01-15T03:54:11;97426.53;;;4.85;49.66
34081;BME280;20358;50.272;19.026;2023-01-15T03:57:31;97418.38;;;4.89;49.87
34081;BME280;20358;50.272;19.026;2023-01-15T04:00:49;97419.22;;;4.90;50.11
34081;BME280;20358;50.272;19.026;2023-01-15T04:03:58;97428.72;;;4.91;49.81
34081;BME280;20358;50.272;19.026;2023-01-15T04:07:10;97405.72;;;4.96;50.53
34081;BME280;20358;50.272;19.026;2023-01-15T04:10:16;97421.13;;;5.01;50.87
34081;BME280;20358;50.272;19.026;2023-01-15T04:13:24;97405.00;;;5.07;50.81
34081;BME280;20358;50.272;19.026;2023-01-15T04:16:32;97403.94;;;5.09;51.19
34081;BME280;20358;50.272;19.026;2023-01-15T04:19:39;97392.97;;;5.04;50.85
34081;BME280;20358;50.272;19.026;2023-01-15T04:22:48;97386.38;;;5.11;51.29
34081;BME280;20358;50.272;19.026;2023-01-15T04:25:55;97391.63;;;5.11;51.76
34081;BME280;20358;50.272;19.026;2023-01-15T04:29:01;97395.38;;;5.07;51.82
34081;BME280;20358;50.272;19.026;2023-01-15T04:32:07;97393.47;;;5.09;51.96
34081;BME280;20358;50.272;19.026;2023-01-15T04:35:12;97398.63;;;5.11;51.42
34081;BME280;20358;50.272;19.026;2023-01-15T04:38:22;97372.75;;;5.06;51.30
34081;BME280;20358;50.272;19.026;2023-01-15T04:41:27;97379.47;;;5.10;51.34
34081;BME280;20358;50.272;19.026;2023-01-15T04:44:49;97380.41;;;5.09;50.94
34081;BME280;20358;50.272;19.026;2023-01-15T04:47:54;97368.81;;;5.13;51.21
34081;BME280;20358;50.272;19.026;2023-01-15T04:51:02;97355.59;;;5.15;50.96
34081;BME280;20358;50.272;19.026;2023-01-15T04:54:12;97357.88;;;5.19;50.93
34081;BME280;20358;50.272;19.026;2023-01-15T04:57:20;97362.91;;;5.22;50.52
34081;BME280;20358;50.272;19.026;2023-01-15T05:00:25;97357.47;;;5.25;50.38
34081;BME280;20358;50.272;19.026;2023-01-15T05:03:32;97359.91;;;5.28;50.11
34081;BME280;20358;50.272;19.026;2023-01-15T05:06:38;97353.72;;;5.29;49.96
34081;BME280;20358;50.272;19.026;2023-01-15T05:09:47;97351.00;;;5.31;49.98
34081;BME280;20358;50.272;19.026;2023-01-15T05:12:54;97358.63;;;5.34;49.94
34081;BME280;20358;50.272;19.026;2023-01-15T05:16:12;97354.97;;;5.36;50.00
34081;BME280;20358;50.272;19.026;2023-01-15T05:19:19;97352.91;;;5.41;49.76
34081;BME280;20358;50.272;19.026;2023-01-15T05:22:27;97334.88;;;5.37;49.56
34081;BME280;20358;50.272;19.026;2023-01-15T05:25:35;97340.31;;;5.34;49.51
34081;BME280;20358;50.272;19.026;2023-01-15T05:28:41;97331.41;;;5.36;49.75
34081;BME280;20358;50.272;19.026;2023-01-15T05:31:47;97323.56;;;5.36;49.51
34081;BME280;20358;50.272;19.026;2023-01-15T05:34:53;97324.69;;;5.32;49.73
34081;BME280;20358;50.272;19.026;2023-01-15T05:37:58;97311.84;;;5.29;49.66
34081;BME280;20358;50.272;19.026;2023-01-15T05:41:11;97188.66;;;4.46;49.81
34081;BME280;20358;50.272;19.026;2023-01-15T05:44:34;97294.03;;;5.22;49.47
34081;BME280;20358;50.272;19.026;2023-01-15T05:47:40;97317.50;;;5.23;49.71
34081;BME280;20358;50.272;19.026;2023-01-15T05:50:46;97312.47;;;5.20;49.44
34081;BME280;20358;50.272;19.026;2023-01-15T05:53:52;97304.94;;;5.16;49.24
34081;BME280;20358;50.272;19.026;2023-01-15T05:57:01;97303.25;;;5.15;49.32
34081;BME280;20358;50.272;19.026;2023-01-15T06:00:09;97304.31;;;5.12;49.43
34081;BME280;20358;50.272;19.026;2023-01-15T06:03:15;97300.53;;;5.04;49.26
34081;BME280;20358;50.272;19.026;2023-01-15T06:06:21;97311.00;;;5.04;49.51
34081;BME280;20358;50.272;19.026;2023-01-15T06:09:27;97311.25;;;5.01;49.18
34081;BME280;20358;50.272;19.026;2023-01-15T06:12:36;97318.34;;;4.99;49.30
34081;BME280;20358;50.272;19.026;2023-01-15T06:15:42;97314.91;;;4.98;49.61
34081;BME280;20358;50.272;19.026;2023-01-15T06:18:49;97319.38;;;4.96;49.38
34081;BME280;20358;50.272;19.026;2023-01-15T06:21:55;97322.97;;;4.95;49.86
34081;BME280;20358;50.272;19.026;2023-01-15T06:25:01;97322.13;;;4.95;49.13
34081;BME280;20358;50.272;19.026;2023-01-15T06:28:09;97322.63;;;4.87;49.36
34081;BME280;20358;50.272;19.026;2023-01-15T06:31:18;97306.81;;;4.76;49.63
34081;BME280;20358;50.272;19.026;2023-01-15T06:34:25;97315.19;;;4.81;49.70
34081;BME280;20358;50.272;19.026;2023-01-15T06:37:32;97319.16;;;4.74;49.60
34081;BME280;20358;50.272;19.026;2023-01-15T06:40:37;97327.03;;;4.74;49.63
34081;BME280;20358;50.272;19.026;2023-01-15T06:43:46;97327.09;;;4.72;49.61
34081;BME280;20358;50.272;19.026;2023-01-15T06:47:13;97319.38;;;4.71;49.32
34081;BME280;20358;50.272;19.026;2023-01-15T06:50:27;97327.94;;;4.73;49.50
34081;BME280;20358;50.272;19.026;2023-01-15T06:53:32;97324.41;;;4.74;49.49
34081;BME280;20358;50.272;19.026;2023-01-15T06:56:39;97329.50;;;4.75;49.05
34081;BME280;20358;50.272;19.026;2023-01-15T06:59:47;97315.19;;;4.68;49.32
34081;BME280;20358;50.272;19.026;2023-01-15T07:02:54;97319.06;;;4.75;49.05
34081;BME280;20358;50.272;19.026;2023-01-15T07:06:05;97319.50;;;4.82;49.25
34081;BME280;20358;50.272;19.026;2023-01-15T07:09:12;97317.72;;;4.82;48.92
34081;BME280;20358;50.272;19.026;2023-01-15T07:12:18;97315.72;;;4.86;49.17
34081;BME280;20358;50.272;19.026;2023-01-15T07:15:27;97326.69;;;4.91;49.03
34081;BME280;20358;50.272;19.026;2023-01-15T07:18:32;97311.22;;;4.88;48.82
34081;BME280;20358;50.272;19.026;2023-01-15T07:21:39;97316.25;;;4.91;48.45
34081;BME280;20358;50.272;19.026;2023-01-15T07:24:45;97314.91;;;4.98;48.56
34081;BME280;20358;50.272;19.026;2023-01-15T07:27:51;97322.50;;;5.01;48.58
34081;BME280;20358;50.272;19.026;2023-01-15T07:31:00;97324.94;;;5.04;47.95
34081;BME280;20358;50.272;19.026;2023-01-15T07:34:06;97330.69;;;5.09;48.00
34081;BME280;20358;50.272;19.026;2023-01-15T07:37:12;97313.22;;;5.10;47.80
34081;BME280;20358;50.272;19.026;2023-01-15T07:40:18;97318.88;;;5.16;48.08
34081;BME280;20358;50.272;19.026;2023-01-15T07:43:24;97309.97;;;5.19;47.64
34081;BME280;20358;50.272;19.026;2023-01-15T07:46:49;97308.91;;;5.21;47.40
34081;BME280;20358;50.272;19.026;2023-01-15T07:50:13;97311.31;;;5.24;47.62
34081;BME280;20358;50.272;19.026;2023-01-15T07:53:21;97308.69;;;5.24;47.30
34081;BME280;20358;50.272;19.026;2023-01-15T07:56:26;97298.00;;;5.27;47.12
34081;BME280;20358;50.272;19.026;2023-01-15T07:59:32;97298.63;;;5.31;47.23
34081;BME280;20358;50.272;19.026;2023-01-15T08:02:41;97303.66;;;5.34;47.18
34081;BME280;20358;50.272;19.026;2023-01-15T08:05:48;97305.97;;;5.38;46.83
34081;BME280;20358;50.272;19.026;2023-01-15T08:08:53;97299.69;;;5.41;46.84
34081;BME280;20358;50.272;19.026;2023-01-15T08:12:01;97301.38;;;5.42;46.77
34081;BME280;20358;50.272;19.026;2023-01-15T08:15:22;97314.97;;;5.47;46.67
34081;BME280;20358;50.272;19.026;2023-01-15T08:18:32;97322.00;;;5.46;46.56
34081;BME280;20358;50.272;19.026;2023-01-15T08:21:37;97321.88;;;5.48;46.61
34081;BME280;20358;50.272;19.026;2023-01-15T08:24:43;97319.16;;;5.49;46.71
34081;BME280;20358;50.272;19.026;2023-01-15T08:27:53;97298.13;;;5.38;46.89
34081;BME280;20358;50.272;19.026;2023-01-15T08:30:59;97312.66;;;5.55;46.20
34081;BME280;20358;50.272;19.026;2023-01-15T08:34:07;97316.84;;;5.58;46.73
34081;BME280;20358;50.272;19.026;2023-01-15T08:37:13;97315.78;;;5.60;46.31
34081;BME280;20358;50.272;19.026;2023-01-15T08:40:19;97293.56;;;5.66;46.43
34081;BME280;20358;50.272;19.026;2023-01-15T08:43:26;97262.00;;;5.43;45.98
34081;BME280;20358;50.272;19.026;2023-01-15T08:46:35;97294.63;;;5.63;46.36
34081;BME280;20358;50.272;19.026;2023-01-15T08:49:45;97295.44;;;5.64;46.14
34081;BME280;20358;50.272;19.026;2023-01-15T08:52:51;97293.34;;;5.69;46.00
34081;BME280;20358;50.272;19.026;2023-01-15T08:55:57;97283.81;;;5.68;45.89
34081;BME280;20358;50.272;19.026;2023-01-15T08:59:04;97281.41;;;5.65;46.00
34081;BME280;20358;50.272;19.026;2023-01-15T09:02:13;97271.38;;;5.59;45.70
34081;BME280;20358;50.272;19.026;2023-01-15T09:05:22;97275.97;;;5.68;45.87
34081;BME280;20358;50.272;19.026;2023-01-15T09:08:30;97271.00;;;5.76;45.67
34081;BME280;20358;50.272;19.026;2023-01-15T09:11:38;97271.72;;;5.78;45.69
34081;BME280;20358;50.272;19.026;2023-01-15T09:14:48;97256.72;;;5.80;45.53
34081;BME280;20358;50.272;19.026;2023-01-15T09:18:03;97273.16;;;5.82;45.24
34081;BME280;20358;50.272;19.026;2023-01-15T09:21:15;97269.84;;;5.80;45.66
34081;BME280;20358;50.272;19.026;2023-01-15T09:24:20;97276.53;;;5.84;45.71
34081;BME280;20358;50.272;19.026;2023-01-15T09:27:27;97273.66;;;5.87;45.23
34081;BME280;20358;50.272;19.026;2023-01-15T09:30:35;97274.91;;;5.94;45.11
34081;BME280;20358;50.272;19.026;2023-01-15T09:33:41;97280.66;;;5.99;45.15
34081;BME280;20358;50.272;19.026;2023-01-15T09:36:49;97273.38;;;6.02;45.37
34081;BME280;20358;50.272;19.026;2023-01-15T09:39:55;97274.13;;;6.04;46.39
34081;BME280;20358;50.272;19.026;2023-01-15T09:43:07;97261.97;;;6.03;46.71
34081;BME280;20358;50.272;19.026;2023-01-15T09:46:27;97261.97;;;6.03;47.14
34081;BME280;20358;50.272;19.026;2023-01-15T09:50:02;97242.50;;;5.95;46.60
34081;BME280;20358;50.272;19.026;2023-01-15T09:53:39;97247.97;;;5.92;47.89
34081;BME280;20358;50.272;19.026;2023-01-15T09:56:58;97244.13;;;5.85;48.35
34081;BME280;20358;50.272;19.026;2023-01-15T10:00:15;97244.25;;;5.83;48.59
34081;BME280;20358;50.272;19.026;2023-01-15T10:03:31;97240.56;;;5.86;49.81
34081;BME280;20358;50.272;19.026;2023-01-15T10:06:49;97230.59;;;5.91;49.87
34081;BME280;20358;50.272;19.026;2023-01-15T10:10:09;97211.53;;;5.89;49.91
34081;BME280;20358;50.272;19.026;2023-01-15T10:13:28;97218.91;;;5.84;49.54
34081;BME280;20358;50.272;19.026;2023-01-15T10:16:45;97216.00;;;5.76;48.54
34081;BME280;20358;50.272;19.026;2023-01-15T10:19:52;97211.19;;;5.70;49.70
34081;BME280;20358;50.272;19.026;2023-01-15T10:23:32;97195.56;;;5.57;49.54
34081;BME280;20358;50.272;19.026;2023-01-15T10:26:52;97199.44;;;5.51;49.82
34081;BME280;20358;50.272;19.026;2023-01-15T10:30:06;97181.34;;;5.48;50.85
34081;BME280;20358;50.272;19.026;2023-01-15T10:33:40;97171.91;;;5.46;51.42
34081;BME280;20358;50.272;19.026;2023-01-15T10:37:06;97171.94;;;5.33;51.47
34081;BME280;20358;50.272;19.026;2023-01-15T10:40:33;97163.16;;;5.34;51.63
34081;BME280;20358;50.272;19.026;2023-01-15T10:43:57;97156.66;;;5.27;53.21
34081;BME280;20358;50.272;19.026;2023-01-15T10:47:12;97164.97;;;5.21;53.28
34081;BME280;20358;50.272;19.026;2023-01-15T10:50:24;97157.13;;;5.09;53.07
34081;BME280;20358;50.272;19.026;2023-01-15T10:53:40;97146.28;;;5.02;53.53
34081;BME280;20358;50.272;19.026;2023-01-15T10:56:55;97142.66;;;4.92;54.09
34081;BME280;20358;50.272;19.026;2023-01-15T11:00:15;97141.31;;;4.86;54.09
34081;BME280;20358;50.272;19.026;2023-01-15T11:03:33;97136.28;;;4.83;54.94
34081;BME280;20358;50.272;19.026;2023-01-15T11:06:42;97127.09;;;4.78;55.57
34081;BME280;20358;50.272;19.026;2023-01-15T11:09:47;97131.94;;;4.71;55.80
34081;BME280;20358;50.272;19.026;2023-01-15T11:12:56;97114.56;;;4.70;55.52
34081;BME280;20358;50.272;19.026;2023-01-15T11:16:25;97105.16;;;4.68;56.30
34081;BME280;20358;50.272;19.026;2023-01-15T11:19:51;97110.59;;;4.65;55.68
34081;BME280;20358;50.272;19.026;2023-01-15T11:23:06;97100.13;;;4.65;56.19
34081;BME280;20358;50.272;19.026;2023-01-15T11:26:22;97098.28;;;4.67;56.28
34081;BME280;20358;50.272;19.026;2023-01-15T11:29:31;97093.63;;;4.70;55.96
34081;BME280;20358;50.272;19.026;2023-01-15T11:32:53;97085.50;;;4.75;56.05
34081;BME280;20358;50.272;19.026;2023-01-15T11:36:03;97078.38;;;4.77;54.69
34081;BME280;20358;50.272;19.026;2023-01-15T11:39:22;97077.19;;;4.81;54.76
34081;BME280;20358;50.272;19.026;2023-01-15T11:42:29;97073.19;;;4.88;55.18
34081;BME280;20358;50.272;19.026;2023-01-15T11:45:52;97073.94;;;4.90;54.92
34081;BME280;20358;50.272;19.026;2023-01-15T11:49:18;97066.81;;;4.92;54.98
34081;BME280;20358;50.272;19.026;2023-01-15T11:52:45;97070.13;;;4.94;54.39
34081;BME280;20358;50.272;19.026;2023-01-15T11:56:00;97070.53;;;5.01;54.16
34081;BME280;20358;50.272;19.026;2023-01-15T11:59:13;97071.13;;;5.04;53.92
34081;BME280;20358;50.272;19.026;2023-01-15T12:02:31;97076.56;;;5.14;54.11
34081;BME280;20358;50.272;19.026;2023-01-15T12:05:55;97064.19;;;5.16;53.29
34081;BME280;20358;50.272;19.026;2023-01-15T12:09:21;97066.47;;;5.20;53.42
34081;BME280;20358;50.272;19.026;2023-01-15T12:12:52;97064.69;;;5.21;53.42
34081;BME280;20358;50.272;19.026;2023-01-15T12:16:19;97063.41;;;5.26;53.24
34081;BME280;20358;50.272;19.026;2023-01-15T12:19:40;97052.47;;;5.32;53.62
34081;BME280;20358;50.272;19.026;2023-01-15T12:23:18;97057.28;;;5.38;52.79
34081;BME280;20358;50.272;19.026;2023-01-15T12:26:58;97056.34;;;5.39;52.66
34081;BME280;20358;50.272;19.026;2023-01-15T12:30:24;97052.78;;;5.40;52.27
34081;BME280;20358;50.272;19.026;2023-01-15T12:33:44;97055.88;;;5.45;52.44
34081;BME280;20358;50.272;19.026;2023-01-15T12:36:58;97038.75;;;5.41;51.67
34081;BME280;20358;50.272;19.026;2023-01-15T12:40:24;97035.44;;;5.50;52.56
34081;BME280;20358;50.272;19.026;2023-01-15T12:43:33;97034.50;;;5.51;52.47
34081;BME280;20358;50.272;19.026;2023-01-15T12:46:55;97041.63;;;5.49;52.26
34081;BME280;20358;50.272;19.026;2023-01-15T12:50:14;97034.72;;;5.48;52.56
34081;BME280;20358;50.272;19.026;2023-01-15T12:53:40;97039.94;;;5.48;52.52
34081;BME280;20358;50.272;19.026;2023-01-15T12:56:59;97035.31;;;5.52;52.50
34081;BME280;20358;50.272;19.026;2023-01-15T13:00:15;97032.00;;;5.50;52.27
34081;BME280;20358;50.272;19.026;2023-01-15T13:03:29;97027.56;;;5.50;52.56
34081;BME280;20358;50.272;19.026;2023-01-15T13:06:48;97025.06;;;5.49;52.27
34081;BME280;20358;50.272;19.026;2023-01-15T13:10:05;97030.81;;;5.54;52.66
34081;BME280;20358;50.272;19.026;2023-01-15T13:13:23;97028.06;;;5.56;52.54
34081;BME280;20358;50.272;19.026;2023-01-15T13:16:40;97020.19;;;5.56;52.55
34081;BME280;20358;50.272;19.026;2023-01-15T13:20:15;96993.72;;;5.36;52.62
34081;BME280;20358;50.272;19.026;2023-01-15T13:23:51;97021.88;;;5.57;52.85
34081;BME280;20358;50.272;19.026;2023-01-15T13:27:23;97011.41;;;5.57;52.41
34081;BME280;20358;50.272;19.026;2023-01-15T13:30:55;97035.19;;;5.53;52.64
34081;BME280;20358;50.272;19.026;2023-01-15T13:34:20;97028.19;;;5.54;52.62
34081;BME280;20358;50.272;19.026;2023-01-15T13:37:35;97030.69;;;5.56;53.11
34081;BME280;20358;50.272;19.026;2023-01-15T13:40:52;97027.97;;;5.57;53.31
34081;BME280;20358;50.272;19.026;2023-01-15T13:44:00;97013.09;;;5.58;53.54
34081;BME280;20358;50.272;19.026;2023-01-15T13:47:16;97010.56;;;5.56;53.80
34081;BME280;20358;50.272;19.026;2023-01-15T13:50:29;97013.09;;;5.58;53.96
34081;BME280;20358;50.272;19.026;2023-01-15T13:53:46;97014.03;;;5.57;54.18
34081;BME280;20358;50.272;19.026;2023-01-15T13:56:53;97011.41;;;5.57;54.01
34081;BME280;20358;50.272;19.026;2023-01-15T14:00:00;97017.50;;;5.57;54.11
34081;BME280;20358;50.272;19.026;2023-01-15T14:03:27;97025.44;;;5.56;53.89
34081;BME280;20358;50.272;19.026;2023-01-15T14:06:38;97028.81;;;5.58;53.75
34081;BME280;20358;50.272;19.026;2023-01-15T14:09:45;97029.50;;;5.60;53.51
34081;BME280;20358;50.272;19.026;2023-01-15T14:13:12;97012.84;;;5.61;53.33
34081;BME280;20358;50.272;19.026;2023-01-15T14:17:07;97003.19;;;5.61;53.36
34081;BME280;20358;50.272;19.026;2023-01-15T14:20:52;96997.13;;;5.61;53.48
34081;BME280;20358;50.272;19.026;2023-01-15T14:28:17;96998.44;;;5.55;53.44
34081;BME280;20358;50.272;19.026;2023-01-15T14:31:50;97014.38;;;5.52;53.66
34081;BME280;20358;50.272;19.026;2023-01-15T14:35:13;97009.03;;;5.53;53.56
34081;BME280;20358;50.272;19.026;2023-01-15T14:38:27;97007.84;;;5.58;53.46
34081;BME280;20358;50.272;19.026;2023-01-15T14:41:36;97017.84;;;5.64;53.58
34081;BME280;20358;50.272;19.026;2023-01-15T14:45:05;97021.91;;;5.68;53.54
34081;BME280;20358;50.272;19.026;2023-01-15T14:48:19;97016.53;;;5.69;53.15
34081;BME280;20358;50.272;19.026;2023-01-15T14:51:48;97019.06;;;5.71;53.63
34081;BME280;20358;50.272;19.026;2023-01-15T14:54:59;97010.25;;;5.72;53.59
34081;BME280;20358;50.272;19.026;2023-01-15T14:58:12;97023.34;;;5.72;53.93
34081;BME280;20358;50.272;19.026;2023-01-15T15:01:40;97031.69;;;5.66;53.68
34081;BME280;20358;50.272;19.026;2023-01-15T15:04:52;97034.50;;;5.51;54.15
34081;BME280;20358;50.272;19.026;2023-01-15T15:08:02;97024.25;;;5.48;54.92
34081;BME280;20358;50.272;19.026;2023-01-15T15:11:22;97028.06;;;5.44;55.38
34081;BME280;20358;50.272;19.026;2023-01-15T15:14:59;97027.44;;;5.41;56.20
34081;BME280;20358;50.272;19.026;2023-01-15T15:18:21;97024.16;;;5.37;56.51
34081;BME280;20358;50.272;19.026;2023-01-15T15:21:41;97019.28;;;5.33;56.89
34081;BME280;20358;50.272;19.026;2023-01-15T15:24:53;97026.28;;;5.21;56.70
34081;BME280;20358;50.272;19.026;2023-01-15T15:28:04;97011.81;;;5.05;56.90
34081;BME280;20358;50.272;19.026;2023-01-15T15:31:14;97027.63;;;5.03;57.48
34081;BME280;20358;50.272;19.026;2023-01-15T15:34:27;97022.81;;;4.97;57.77
34081;BME280;20358;50.272;19.026;2023-01-15T15:37:35;97021.13;;;4.85;57.65
34081;BME280;20358;50.272;19.026;2023-01-15T15:40:46;97024.66;;;4.84;58.21
34081;BME280;20358;50.272;19.026;2023-01-15T15:43:58;97036.91;;;4.83;58.40
34081;BME280;20358;50.272;19.026;2023-01-15T15:47:22;97039.84;;;4.79;58.74
34081;BME280;20358;50.272;19.026;2023-01-15T15:50:41;97037.59;;;4.74;58.90
34081;BME280;20358;50.272;19.026;2023-01-15T15:53:48;97039.69;;;4.69;59.19
34081;BME280;20358;50.272;19.026;2023-01-15T15:56:59;97056.13;;;4.59;59.58
34081;BME280;20358;50.272;19.026;2023-01-15T16:00:18;97040.75;;;4.54;60.17
34081;BME280;20358;50.272;19.026;2023-01-15T16:03:30;97043.28;;;4.56;60.30
34081;BME280;20358;50.272;19.026;2023-01-15T16:06:38;97041.38;;;4.58;59.91
34081;BME280;20358;50.272;19.026;2023-01-15T16:09:48;97047.44;;;4.58;60.33
34081;BME280;20358;50.272;19.026;2023-01-15T16:13:00;97071.03;;;4.46;60.38
34081;BME280;20358;50.272;19.026;2023-01-15T16:16:13;97091.63;;;4.38;60.92
34081;BME280;20358;50.272;19.026;2023-01-15T16:19:23;97107.94;;;4.28;61.85
34081;BME280;20358;50.272;19.026;2023-01-15T16:22:30;97123.84;;;4.25;62.00
34081;BME280;20358;50.272;19.026;2023-01-15T16:25:40;97124.34;;;4.18;62.86
34081;BME280;20358;50.272;19.026;2023-01-15T16:28:52;97140.13;;;4.04;63.15
34081;BME280;20358;50.272;19.026;2023-01-15T16:32:12;97148.03;;;3.90;64.99
34081;BME280;20358;50.272;19.026;2023-01-15T16:35:24;97168.88;;;3.77;65.32
34081;BME280;20358;50.272;19.026;2023-01-15T16:38:34;97186.00;;;3.68;67.13
34081;BME280;20358;50.272;19.026;2023-01-15T16:41:43;97200.69;;;3.43;68.30
34081;BME280;20358;50.272;19.026;2023-01-15T16:44:53;97216.78;;;3.23;69.59
34081;BME280;20358;50.272;19.026;2023-01-15T16:48:24;97208.66;;;3.00;70.43
34081;BME280;20358;50.272;19.026;2023-01-15T16:51:35;97232.31;;;2.97;72.09
34081;BME280;20358;50.272;19.026;2023-01-15T16:54:45;97244.97;;;2.89;71.95
34081;BME280;20358;50.272;19.026;2023-01-15T16:58:17;97244.59;;;2.67;72.10
34081;BME280;20358;50.272;19.026;2023-01-15T17:01:33;97254.22;;;2.37;74.10
34081;BME280;20358;50.272;19.026;2023-01-15T17:04:47;97259.06;;;2.29;73.93
34081;BME280;20358;50.272;19.026;2023-01-15T17:07:55;97265.09;;;2.15;74.15